createdAt,value
2022-09-14T00:00:13.582Z,9.418272
2022-09-14T00:01:26.286Z,9.418259
2022-09-14T00:02:15.804Z,9.418308
2022-09-14T00:03:13.594Z,9.418298
2022-09-14T00:04:13.569Z,9.418257
2022-09-14T00:05:13.606Z,9.418230
2022-09-14T00:06:13.546Z,9.418221
2022-09-14T00:07:13.553Z,9.418260
2022-09-14T00:08:13.530Z,9.418316
2022-09-14T00:09:13.530Z,9.418349
2022-09-14T00:10:13.519Z,9.418336
2022-09-14T00:11:13.510Z,9.418387
2022-09-14T00:12:13.522Z,9.418317
2022-09-14T00:13:13.509Z,9.418279
2022-09-14T00:14:13.485Z,9.418294
2022-09-14T00:15:13.484Z,9.418319
2022-09-14T00:16:13.504Z,9.418329
2022-09-14T00:17:13.495Z,9.418311
2022-09-14T00:18:13.482Z,9.418249
2022-09-14T00:19:13.461Z,9.418147
2022-09-14T00:20:13.454Z,9.418136
2022-09-14T00:21:13.446Z,9.418265
2022-09-14T00:22:13.458Z,9.418324
2022-09-14T00:23:13.445Z,9.418355
2022-09-14T00:24:13.434Z,9.418313
2022-09-14T00:25:13.430Z,9.418242
2022-09-14T00:26:13.402Z,9.418254
2022-09-14T00:27:13.418Z,9.418320
2022-09-14T00:28:13.410Z,9.418304
2022-09-14T00:29:13.387Z,9.418287
2022-09-14T00:30:13.393Z,9.418331
2022-09-14T00:31:13.391Z,9.418290
2022-09-14T00:32:13.464Z,9.418210
2022-09-14T00:33:13.386Z,9.418267
2022-09-14T00:34:13.369Z,9.418290
2022-09-14T00:35:13.349Z,9.418299
2022-09-14T00:36:13.350Z,9.418227
2022-09-14T00:37:13.355Z,9.418326
2022-09-14T00:38:13.337Z,9.418284
2022-09-14T00:39:13.332Z,9.418264
2022-09-14T00:40:13.411Z,9.418283
2022-09-14T00:41:13.305Z,9.418302
2022-09-14T00:42:13.330Z,9.418225
2022-09-14T00:43:13.305Z,9.418193
2022-09-14T00:44:13.294Z,9.418256
2022-09-14T00:45:13.290Z,9.418154
2022-09-14T00:46:13.308Z,9.418285
2022-09-14T00:47:13.347Z,9.418263
2022-09-14T00:48:13.285Z,9.418306
2022-09-14T00:49:13.258Z,9.418258
2022-09-14T00:50:13.246Z,9.418258
2022-09-14T00:51:13.250Z,9.418288
2022-09-14T00:52:13.238Z,9.418288
2022-09-14T00:53:13.254Z,9.418312
2022-09-14T00:54:13.225Z,9.418334
2022-09-14T00:55:13.217Z,9.418320
2022-09-14T00:56:13.209Z,9.418294
2022-09-14T00:57:13.205Z,9.418289
2022-09-14T00:58:13.201Z,9.418278
2022-09-14T00:59:13.201Z,9.418320
2022-09-14T01:00:13.177Z,9.418307
2022-09-14T01:01:13.249Z,9.418339
2022-09-14T01:02:13.208Z,9.418303
2022-09-14T01:03:13.161Z,9.418270
2022-09-14T01:04:13.169Z,9.418294
2022-09-14T01:05:13.132Z,9.418265
2022-09-14T01:06:13.137Z,9.418235
2022-09-14T01:07:13.134Z,9.418256
2022-09-14T01:08:13.119Z,9.418241
2022-09-14T01:09:13.125Z,9.418292
2022-09-14T01:10:13.113Z,9.418258
2022-09-14T01:11:13.103Z,9.418234
2022-09-14T01:12:13.101Z,9.418223
2022-09-14T01:13:13.093Z,9.418263
2022-09-14T01:14:13.081Z,9.418270
2022-09-14T01:15:13.081Z,9.418241
2022-09-14T01:16:13.137Z,9.418256
2022-09-14T01:17:13.070Z,9.418248
2022-09-14T01:18:13.061Z,9.418297
2022-09-14T01:19:13.055Z,9.418271
2022-09-14T01:20:13.061Z,9.418204
2022-09-14T01:21:13.036Z,9.418205
2022-09-14T01:22:13.032Z,9.418234
2022-09-14T01:23:13.016Z,9.418252
2022-09-14T01:24:13.017Z,9.418241
2022-09-14T01:25:13.036Z,9.418284
2022-09-14T01:26:13.005Z,9.418291
2022-09-14T01:27:12.991Z,9.418246
2022-09-14T01:28:12.991Z,9.418299
2022-09-14T01:29:12.987Z,9.418279
2022-09-14T01:30:12.974Z,9.418320
2022-09-14T01:31:12.999Z,9.418342
2022-09-14T01:32:12.967Z,9.418261
2022-09-14T01:33:12.959Z,9.418382
2022-09-14T01:34:12.951Z,9.418407
2022-09-14T01:35:15.779Z,9.418366
2022-09-14T01:36:13.936Z,9.418219
2022-09-14T01:37:12.939Z,9.418236
2022-09-14T01:38:12.937Z,9.418301
2022-09-14T01:39:12.911Z,9.418305
2022-09-14T01:40:13.002Z,9.418328
2022-09-14T01:41:12.905Z,9.418287
2022-09-14T01:42:12.894Z,9.418208
2022-09-14T01:43:12.892Z,9.418264
2022-09-14T01:44:12.890Z,9.418283
2022-09-14T01:45:12.878Z,9.418254
2022-09-14T01:46:12.953Z,9.418309
2022-09-14T01:47:12.871Z,9.418358
2022-09-14T01:48:12.863Z,9.418248
2022-09-14T01:49:12.851Z,9.418301
2022-09-14T01:50:12.848Z,9.418282
2022-09-14T01:51:12.929Z,9.418282
2022-09-14T01:52:12.830Z,9.418280
2022-09-14T01:53:12.829Z,9.418156
2022-09-14T01:54:12.808Z,9.418364
2022-09-14T01:55:12.819Z,9.418283
2022-09-14T01:56:12.811Z,9.418252
2022-09-14T01:57:12.819Z,9.418271
2022-09-14T01:58:12.803Z,9.418297
2022-09-14T01:59:12.810Z,9.418262
2022-09-14T02:00:12.775Z,9.418255
2022-09-14T02:01:12.831Z,9.418303
2022-09-14T02:02:12.868Z,9.418216
2022-09-14T02:03:12.754Z,9.418259
2022-09-14T02:04:12.751Z,9.418230
2022-09-14T02:05:12.747Z,9.418100
2022-09-14T02:06:12.742Z,9.418128
2022-09-14T02:07:12.738Z,9.418061
2022-09-14T02:08:12.750Z,9.418120
2022-09-14T02:09:12.714Z,9.418136
2022-09-14T02:10:12.710Z,9.418115
2022-09-14T02:11:12.711Z,9.418103
2022-09-14T02:12:12.698Z,9.418049
2022-09-14T02:13:12.699Z,9.417715
2022-09-14T02:14:12.689Z,9.417747
2022-09-14T02:15:12.687Z,9.418212
2022-09-14T02:16:12.718Z,9.418224
2022-09-14T02:17:12.675Z,9.418259
2022-09-14T02:18:12.661Z,9.418249
2022-09-14T02:19:12.670Z,9.418246
2022-09-14T02:20:12.645Z,9.418262
2022-09-14T02:21:12.634Z,9.418248
2022-09-14T02:22:12.630Z,9.418242
2022-09-14T02:23:13.448Z,9.418223
2022-09-14T02:24:12.633Z,9.418214
2022-09-14T02:25:12.602Z,9.418251
2022-09-14T02:26:12.604Z,9.418281
2022-09-14T02:27:12.590Z,9.418248
2022-09-14T02:28:12.593Z,9.418247
2022-09-14T02:29:12.594Z,9.418196
2022-09-14T02:30:12.582Z,9.418195
2022-09-14T02:31:12.624Z,9.418272
2022-09-14T02:32:12.566Z,9.418278
2022-09-14T02:33:12.549Z,9.418333
2022-09-14T02:34:12.546Z,9.418264
2022-09-14T02:35:12.554Z,9.418208
2022-09-14T02:36:12.534Z,9.418232
2022-09-14T02:37:12.518Z,9.418229
2022-09-14T02:38:12.526Z,9.418344
2022-09-14T02:39:12.514Z,9.418339
2022-09-14T02:40:12.564Z,9.418222
2022-09-14T02:41:12.498Z,9.418179
2022-09-14T02:42:12.496Z,9.418252
2022-09-14T02:43:12.490Z,9.418226
2022-09-14T02:44:12.490Z,9.418257
2022-09-14T02:45:12.495Z,9.418284
2022-09-14T02:46:12.541Z,9.418309
2022-09-14T02:47:12.461Z,9.418307
2022-09-14T02:48:12.461Z,9.418331
2022-09-14T02:49:12.451Z,9.418345
2022-09-14T02:50:12.457Z,9.418179
2022-09-14T02:51:13.434Z,9.418256
2022-09-14T02:52:12.417Z,9.418377
2022-09-14T02:53:12.435Z,9.418351
2022-09-14T02:54:12.417Z,9.418340
2022-09-14T02:55:12.496Z,9.418342
2022-09-14T02:56:12.416Z,9.418332
2022-09-14T02:57:12.395Z,9.418277
2022-09-14T02:58:12.381Z,9.418307
2022-09-14T02:59:12.377Z,9.418466
2022-09-14T03:00:12.381Z,9.418303
2022-09-14T03:01:12.418Z,9.418472
2022-09-14T03:02:12.423Z,9.418254
2022-09-14T03:03:12.352Z,9.418047
2022-09-14T03:04:12.337Z,9.418207
2022-09-14T03:05:12.337Z,9.418292
2022-09-14T03:06:12.341Z,9.418554
2022-09-14T03:07:12.321Z,9.418521
2022-09-14T03:08:12.331Z,9.418600
2022-09-14T03:09:12.310Z,9.418685
2022-09-14T03:10:12.297Z,9.418708
2022-09-14T03:11:12.299Z,9.418694
2022-09-14T03:12:13.293Z,9.418806
2022-09-14T03:13:12.287Z,9.418747
2022-09-14T03:14:12.278Z,9.418950
2022-09-14T03:15:12.277Z,9.418934
2022-09-14T03:16:12.343Z,9.419025
2022-09-14T03:17:12.293Z,9.419068
2022-09-14T03:18:14.446Z,9.419147
2022-09-14T03:19:13.240Z,9.419136
2022-09-14T03:20:12.237Z,9.419090
2022-09-14T03:21:12.234Z,9.418915
2022-09-14T03:22:12.221Z,9.418916
2022-09-14T03:23:12.227Z,9.418904
2022-09-14T03:24:12.221Z,9.418718
2022-09-14T03:25:12.213Z,9.418503
2022-09-14T03:26:12.197Z,9.418384
2022-09-14T03:27:12.205Z,9.418244
2022-09-14T03:28:12.197Z,9.418210
2022-09-14T03:29:12.189Z,9.418302
2022-09-14T03:30:12.177Z,9.418434
2022-09-14T03:31:12.247Z,9.418453
2022-09-14T03:32:12.166Z,9.418405
2022-09-14T03:33:12.174Z,9.418445
2022-09-14T03:34:12.165Z,9.418458
2022-09-14T03:35:12.150Z,9.418379
2022-09-14T03:36:12.138Z,9.418375
2022-09-14T03:37:12.125Z,9.418329
2022-09-14T03:38:12.133Z,9.418380
2022-09-14T03:39:12.127Z,9.418410
2022-09-14T03:40:12.250Z,9.418336
2022-09-14T03:41:12.098Z,9.418415
2022-09-14T03:42:12.097Z,9.418566
2022-09-14T03:43:12.092Z,9.418465
2022-09-14T03:44:12.086Z,9.418605
2022-09-14T03:45:12.086Z,9.418440
2022-09-14T03:46:12.106Z,9.418452
2022-09-14T03:47:12.057Z,9.418318
2022-09-14T03:48:12.057Z,9.418342
2022-09-14T03:49:12.048Z,9.418384
2022-09-14T03:50:12.055Z,9.418301
2022-09-14T03:51:12.033Z,9.418259
2022-09-14T03:52:12.032Z,9.418248
2022-09-14T03:53:12.014Z,9.418304
2022-09-14T03:54:12.017Z,9.418401
2022-09-14T03:55:12.020Z,9.418335
2022-09-14T03:56:12.005Z,9.418436
2022-09-14T03:57:12.001Z,9.418668
2022-09-14T03:58:11.985Z,9.418603
2022-09-14T03:59:12.060Z,9.418489
2022-09-14T04:00:11.981Z,9.418562
2022-09-14T04:01:11.957Z,9.418517
2022-09-14T04:02:12.028Z,9.418409
2022-09-14T04:03:12.013Z,9.418335
2022-09-14T04:04:11.948Z,9.418500
2022-09-14T04:05:11.942Z,9.418147
2022-09-14T04:06:11.932Z,9.418082
2022-09-14T04:07:11.921Z,9.418222
2022-09-14T04:08:11.913Z,9.417983
2022-09-14T04:09:11.913Z,9.417924
2022-09-14T04:10:11.915Z,9.417954
2022-09-14T04:11:11.897Z,9.418043
2022-09-14T04:12:11.881Z,9.418117
2022-09-14T04:13:11.877Z,9.418157
2022-09-14T04:14:11.866Z,9.417458
2022-09-14T04:15:11.940Z,9.417907
2022-09-14T04:16:11.898Z,9.418081
2022-09-14T04:17:11.849Z,9.418197
2022-09-14T04:18:11.841Z,9.418249
2022-09-14T04:19:11.837Z,9.418179
2022-09-14T04:20:11.833Z,9.418292
2022-09-14T04:21:11.830Z,9.418126
2022-09-14T04:22:11.829Z,9.418109
2022-09-14T04:23:11.813Z,9.418358
2022-09-14T04:24:15.167Z,9.418180
2022-09-14T04:25:11.798Z,9.418030
2022-09-14T04:26:11.789Z,9.418181
2022-09-14T04:27:11.801Z,9.418120
2022-09-14T04:28:20.302Z,9.418210
2022-09-14T04:29:12.765Z,9.418153
2022-09-14T04:30:11.760Z,9.418242
2022-09-14T04:31:11.806Z,9.418316
2022-09-14T04:32:11.753Z,9.418271
2022-09-14T04:33:11.737Z,9.418310
2022-09-14T04:34:11.737Z,9.418294
2022-09-14T04:35:11.716Z,9.418280
2022-09-14T04:36:11.717Z,9.418341
2022-09-14T04:37:11.721Z,9.418489
2022-09-14T04:38:11.705Z,9.418297
2022-09-14T04:39:11.698Z,9.418200
2022-09-14T04:40:11.722Z,9.418175
2022-09-14T04:41:11.669Z,9.418338
2022-09-14T04:42:11.681Z,9.418464
2022-09-14T04:43:11.684Z,9.418294
2022-09-14T04:44:11.652Z,9.418036
2022-09-14T04:45:11.740Z,9.418299
2022-09-14T04:46:11.673Z,9.418400
2022-09-14T04:47:11.644Z,9.418371
2022-09-14T04:48:11.633Z,9.418307
2022-09-14T04:49:11.612Z,9.418326
2022-09-14T04:50:11.629Z,9.418327
2022-09-14T04:51:11.618Z,9.418262
2022-09-14T04:52:11.611Z,9.418268
2022-09-14T04:53:11.591Z,9.418369
2022-09-14T04:54:11.584Z,9.418389
2022-09-14T04:55:11.572Z,9.418362
2022-09-14T04:56:12.569Z,9.418277
2022-09-14T04:57:11.569Z,9.418290
2022-09-14T04:58:11.556Z,9.418242
2022-09-14T04:59:11.552Z,9.418312
2022-09-14T05:00:11.544Z,9.418243
2022-09-14T05:01:11.534Z,9.418251
2022-09-14T05:02:11.640Z,9.418313
2022-09-14T05:03:11.648Z,9.418331
2022-09-14T05:04:11.522Z,9.418340
2022-09-14T05:05:11.506Z,9.418344
2022-09-14T05:06:11.493Z,9.418303
2022-09-14T05:07:11.532Z,9.418289
2022-09-14T05:08:11.498Z,9.418303
2022-09-14T05:09:11.488Z,9.418238
2022-09-14T05:10:11.470Z,9.418260
2022-09-14T05:11:11.465Z,9.418358
2022-09-14T05:12:11.453Z,9.418311
2022-09-14T05:13:11.523Z,9.418309
2022-09-14T05:14:11.433Z,9.418266
2022-09-14T05:15:11.424Z,9.418284
2022-09-14T05:16:11.467Z,9.418321
2022-09-14T05:17:11.419Z,9.418348
2022-09-14T05:18:11.418Z,9.418342
2022-09-14T05:19:11.401Z,9.418313
2022-09-14T05:20:11.394Z,9.418402
2022-09-14T05:21:11.392Z,9.418395
2022-09-14T05:22:11.379Z,9.418410
2022-09-14T05:23:11.388Z,9.418422
2022-09-14T05:24:11.381Z,9.418378
2022-09-14T05:25:11.356Z,9.418387
2022-09-14T05:26:11.357Z,9.418361
2022-09-14T05:27:11.340Z,9.418341
2022-09-14T05:28:11.337Z,9.418311
2022-09-14T05:29:11.336Z,9.418310
2022-09-14T05:30:11.311Z,9.418319
2022-09-14T05:31:11.392Z,9.418278
2022-09-14T05:32:11.304Z,9.418337
2022-09-14T05:33:11.293Z,9.418393
2022-09-14T05:34:11.300Z,9.418431
2022-09-14T05:35:11.283Z,9.418303
2022-09-14T05:36:11.263Z,9.418316
2022-09-14T05:37:11.272Z,9.418329
2022-09-14T05:38:11.268Z,9.418324
2022-09-14T05:39:11.260Z,9.418302
2022-09-14T05:40:11.276Z,9.418295
2022-09-14T05:41:11.243Z,9.418327
2022-09-14T05:42:11.256Z,9.418360
2022-09-14T05:43:11.224Z,9.418379
2022-09-14T05:44:11.212Z,9.418327
2022-09-14T05:45:11.208Z,9.418255
2022-09-14T05:46:11.313Z,9.418230
2022-09-14T05:47:11.207Z,9.418283
2022-09-14T05:48:11.188Z,9.418260
2022-09-14T05:49:11.196Z,9.418326
2022-09-14T05:50:11.177Z,9.418385
2022-09-14T05:51:11.285Z,9.418281
2022-09-14T05:52:11.171Z,9.418279
2022-09-14T05:53:11.154Z,9.418260
2022-09-14T05:54:11.144Z,9.418278
2022-09-14T05:55:11.136Z,9.418320
2022-09-14T05:56:11.139Z,9.418362
2022-09-14T05:57:11.135Z,9.418290
2022-09-14T05:58:11.122Z,9.418240
2022-09-14T05:59:11.113Z,9.418232
2022-09-14T06:00:11.087Z,9.418188
2022-09-14T06:01:11.105Z,9.418252
2022-09-14T06:02:14.416Z,9.418220
2022-09-14T06:03:12.076Z,9.418218
2022-09-14T06:04:11.081Z,9.418252
2022-09-14T06:05:11.110Z,9.418244
2022-09-14T06:06:11.060Z,9.418253
2022-09-14T06:07:18.444Z,9.418254
2022-09-14T06:08:12.048Z,9.418228
2022-09-14T06:09:11.042Z,9.418181
2022-09-14T06:10:11.027Z,9.418135
2022-09-14T06:11:11.024Z,9.418159
2022-09-14T06:12:11.028Z,9.418257
2022-09-14T06:13:11.019Z,9.418221
2022-09-14T06:14:10.994Z,9.418228
2022-09-14T06:15:11.991Z,9.418245
2022-09-14T06:16:10.988Z,9.418229
2022-09-14T06:17:10.992Z,9.418200
2022-09-14T06:18:10.971Z,9.418298
2022-09-14T06:19:10.959Z,9.418339
2022-09-14T06:20:10.951Z,9.418255
2022-09-14T06:21:10.947Z,9.418322
2022-09-14T06:22:10.947Z,9.418385
2022-09-14T06:23:10.935Z,9.418315
2022-09-14T06:24:10.924Z,9.418263
2022-09-14T06:25:10.920Z,9.418347
2022-09-14T06:26:10.911Z,9.418222
2022-09-14T06:27:10.900Z,9.418138
2022-09-14T06:28:10.923Z,9.418127
2022-09-14T06:29:10.886Z,9.418205
2022-09-14T06:30:10.879Z,9.418224
2022-09-14T06:31:10.872Z,9.418139
2022-09-14T06:32:10.863Z,9.418189
2022-09-14T06:33:10.867Z,9.418271
2022-09-14T06:34:10.855Z,9.418289
2022-09-14T06:35:12.538Z,9.418312
2022-09-14T06:36:11.835Z,9.418297
2022-09-14T06:37:10.816Z,9.418242
2022-09-14T06:38:10.832Z,9.418217
2022-09-14T06:39:10.815Z,9.418193
2022-09-14T06:40:10.835Z,9.418242
2022-09-14T06:41:10.799Z,9.418212
2022-09-14T06:42:10.802Z,9.418300
2022-09-14T06:43:10.775Z,9.418275
2022-09-14T06:44:10.780Z,9.418232
2022-09-14T06:45:10.768Z,9.418239
2022-09-14T06:46:10.759Z,9.418297
2022-09-14T06:47:10.755Z,9.418253
2022-09-14T06:48:10.743Z,9.418303
2022-09-14T06:49:10.741Z,9.418255
2022-09-14T06:50:11.745Z,9.418239
2022-09-14T06:51:10.723Z,9.418255
2022-09-14T06:52:10.719Z,9.418288
2022-09-14T06:53:10.734Z,9.418269
2022-09-14T06:54:10.772Z,9.418262
2022-09-14T06:55:10.721Z,9.418229
2022-09-14T06:56:10.699Z,9.418229
2022-09-14T06:57:10.683Z,9.418260
2022-09-14T06:58:10.663Z,9.418268
2022-09-14T06:59:10.660Z,9.418296
2022-09-14T07:00:10.651Z,9.418296
2022-09-14T07:01:10.657Z,9.418256
2022-09-14T07:02:10.643Z,9.418187
2022-09-14T07:03:10.661Z,9.418243
2022-09-14T07:04:10.623Z,9.418236
2022-09-14T07:05:10.617Z,9.418199
2022-09-14T07:06:10.627Z,9.418259
2022-09-14T07:07:10.616Z,9.418275
2022-09-14T07:08:12.391Z,9.418333
2022-09-14T07:09:11.583Z,9.418308
2022-09-14T07:10:10.574Z,9.418272
2022-09-14T07:11:10.580Z,9.418221
2022-09-14T07:12:10.589Z,9.418213
2022-09-14T07:13:10.554Z,9.418328
2022-09-14T07:14:10.547Z,9.418275
2022-09-14T07:15:10.549Z,9.418237
2022-09-14T07:16:10.537Z,9.418263
2022-09-14T07:17:10.543Z,9.418280
2022-09-14T07:18:10.529Z,9.418253
2022-09-14T07:19:10.515Z,9.418285
2022-09-14T07:20:10.508Z,9.418256
2022-09-14T07:21:10.506Z,9.418264
2022-09-14T07:22:10.506Z,9.418244
2022-09-14T07:23:10.487Z,9.418257
2022-09-14T07:24:10.482Z,9.418262
2022-09-14T07:25:10.471Z,9.418258
2022-09-14T07:26:10.470Z,9.418242
2022-09-14T07:27:10.482Z,9.418237
2022-09-14T07:28:10.447Z,9.418289
2022-09-14T07:29:10.446Z,9.418331
2022-09-14T07:30:10.443Z,9.418335
2022-09-14T07:31:10.525Z,9.418341
2022-09-14T07:32:10.421Z,9.418344
2022-09-14T07:33:10.423Z,9.418316
2022-09-14T07:34:10.410Z,9.418321
2022-09-14T07:35:10.412Z,9.418267
2022-09-14T07:36:10.430Z,9.418264
2022-09-14T07:37:10.380Z,9.418288
2022-09-14T07:38:10.400Z,9.418332
2022-09-14T07:39:10.375Z,9.418312
2022-09-14T07:40:10.392Z,9.418315
2022-09-14T07:41:10.351Z,9.418305
2022-09-14T07:42:10.342Z,9.418274
2022-09-14T07:43:10.366Z,9.418293
2022-09-14T07:44:10.335Z,9.418266
2022-09-14T07:45:10.329Z,9.418266
2022-09-14T07:46:10.357Z,9.418319
2022-09-14T07:47:10.315Z,9.418335
2022-09-14T07:48:10.306Z,9.418300
2022-09-14T07:49:10.331Z,9.418296
2022-09-14T07:50:10.292Z,9.418293
2022-09-14T07:51:10.288Z,9.418302
2022-09-14T07:52:10.271Z,9.418299
2022-09-14T07:53:10.267Z,9.418331
2022-09-14T07:54:10.267Z,9.418303
2022-09-14T07:55:10.267Z,9.418300
2022-09-14T07:56:10.248Z,9.418309
2022-09-14T07:57:10.243Z,9.418326
2022-09-14T07:58:10.231Z,9.418250
2022-09-14T07:59:38.968Z,9.418303
2022-09-14T08:00:12.234Z,9.418262
2022-09-14T08:01:10.252Z,9.418260
2022-09-14T08:02:10.251Z,9.418263
2022-09-14T08:03:10.198Z,9.418246
2022-09-14T08:04:10.182Z,9.418235
2022-09-14T08:05:10.202Z,9.418282
2022-09-14T08:06:10.179Z,9.418206
2022-09-14T08:07:10.168Z,9.418198
2022-09-14T08:08:10.158Z,9.418179
2022-09-14T08:09:10.142Z,9.418264
2022-09-14T08:10:10.155Z,9.418200
2022-09-14T08:11:10.131Z,9.418305
2022-09-14T08:12:10.158Z,9.418249
2022-09-14T08:13:10.122Z,9.418532
2022-09-14T08:14:10.122Z,9.418452
2022-09-14T08:15:11.122Z,9.418314
2022-09-14T08:16:10.145Z,9.418277
2022-09-14T08:17:10.122Z,9.418305
2022-09-14T08:18:10.090Z,9.418369
2022-09-14T08:19:10.099Z,9.418286
2022-09-14T08:20:10.075Z,9.418256
2022-09-14T08:21:10.058Z,9.418260
2022-09-14T08:22:11.066Z,9.418262
2022-09-14T08:23:10.059Z,9.418311
2022-09-14T08:24:10.058Z,9.418272
2022-09-14T08:25:10.034Z,9.418189
2022-09-14T08:26:10.025Z,9.418211
2022-09-14T08:27:10.030Z,9.418346
2022-09-14T08:28:10.027Z,9.418165
2022-09-14T08:29:10.094Z,9.418313
2022-09-14T08:30:09.999Z,9.418256
2022-09-14T08:31:09.994Z,9.418159
2022-09-14T08:32:10.047Z,9.418263
2022-09-14T08:33:09.978Z,9.418253
2022-09-14T08:34:09.967Z,9.418178
2022-09-14T08:35:09.956Z,9.418146
2022-09-14T08:36:09.955Z,9.418121
2022-09-14T08:37:09.963Z,9.418221
2022-09-14T08:38:09.939Z,9.418266
2022-09-14T08:39:09.955Z,9.418303
2022-09-14T08:40:09.938Z,9.418294
2022-09-14T08:41:09.920Z,9.418252
2022-09-14T08:42:09.914Z,9.418234
2022-09-14T08:43:09.911Z,9.418202
2022-09-14T08:44:09.914Z,9.418225
2022-09-14T08:45:09.987Z,9.418240
2022-09-14T08:46:09.932Z,9.418266
2022-09-14T08:47:09.887Z,9.418268
2022-09-14T08:48:09.871Z,9.418274
2022-09-14T08:49:09.858Z,9.418313
2022-09-14T08:50:09.866Z,9.418316
2022-09-14T08:51:09.834Z,9.418297
2022-09-14T08:52:09.842Z,9.418300
2022-09-14T08:53:09.847Z,9.418232
2022-09-14T08:54:09.818Z,9.418250
2022-09-14T08:55:09.834Z,9.418276
2022-09-14T08:56:09.810Z,9.418217
2022-09-14T08:57:09.818Z,9.418216
2022-09-14T08:58:09.790Z,9.418277
2022-09-14T08:59:09.790Z,9.418302
2022-09-14T09:00:09.799Z,9.418312
2022-09-14T09:01:09.811Z,9.418313
2022-09-14T09:02:09.772Z,9.418307
2022-09-14T09:03:09.759Z,9.418258
2022-09-14T09:04:09.804Z,9.418191
2022-09-14T09:05:09.746Z,9.418237
2022-09-14T09:06:13.954Z,9.418280
2022-09-14T09:07:11.796Z,9.418294
2022-09-14T09:08:09.725Z,9.418300
2022-09-14T09:09:09.727Z,9.418304
2022-09-14T09:10:09.718Z,9.418274
2022-09-14T09:11:09.722Z,9.418215
2022-09-14T09:12:09.727Z,9.418254
2022-09-14T09:13:09.702Z,9.418242
2022-09-14T09:14:09.691Z,9.418319
2022-09-14T09:15:09.678Z,9.418372
2022-09-14T09:16:09.741Z,9.418371
2022-09-14T09:17:09.674Z,9.418337
2022-09-14T09:18:09.670Z,9.418318
2022-09-14T09:19:09.664Z,9.418310
2022-09-14T09:20:09.650Z,9.418266
2022-09-14T09:21:10.646Z,9.418228
2022-09-14T09:22:09.642Z,9.418185
2022-09-14T09:23:09.641Z,9.418171
2022-09-14T09:24:09.633Z,9.418228
2022-09-14T09:25:09.623Z,9.418278
2022-09-14T09:26:09.614Z,9.418255
2022-09-14T09:27:09.598Z,9.418284
2022-09-14T09:28:09.607Z,9.418317
2022-09-14T09:29:09.598Z,9.418299
2022-09-14T09:30:09.586Z,9.418346
2022-09-14T09:31:14.465Z,9.418299
2022-09-14T09:32:11.565Z,9.418317
2022-09-14T09:33:09.573Z,9.418368
2022-09-14T09:34:09.558Z,9.418366
2022-09-14T09:35:09.544Z,9.418302
2022-09-14T09:36:10.543Z,9.418277
2022-09-14T09:37:09.534Z,9.418264
2022-09-14T09:38:09.528Z,9.418265
2022-09-14T09:39:09.538Z,9.418235
2022-09-14T09:40:09.547Z,9.418141
2022-09-14T09:41:09.509Z,9.418285
2022-09-14T09:42:09.497Z,9.418255
2022-09-14T09:43:09.489Z,9.418315
2022-09-14T09:44:09.510Z,9.418352
2022-09-14T09:45:09.489Z,9.418360
2022-09-14T09:46:09.516Z,9.418398
2022-09-14T09:47:09.506Z,9.418431
2022-09-14T09:48:09.469Z,9.418400
2022-09-14T09:49:09.449Z,9.418344
2022-09-14T09:50:09.453Z,9.418344
2022-09-14T09:51:09.462Z,9.418320
2022-09-14T09:52:09.437Z,9.418350
2022-09-14T09:53:09.442Z,9.418242
2022-09-14T09:54:09.439Z,9.418250
2022-09-14T09:55:09.425Z,9.418288
2022-09-14T09:56:09.447Z,9.418319
2022-09-14T09:57:09.418Z,9.418420
2022-09-14T09:58:09.422Z,9.418364
2022-09-14T09:59:09.390Z,9.418350
2022-09-14T10:00:09.394Z,9.418348
2022-09-14T10:01:12.481Z,9.418331
2022-09-14T10:02:09.428Z,9.418361
2022-09-14T10:03:09.371Z,9.418582
2022-09-14T10:04:09.353Z,9.418334
2022-09-14T10:05:09.350Z,9.418336
2022-09-14T10:06:10.362Z,9.418317
2022-09-14T10:07:09.403Z,9.418307
2022-09-14T10:08:11.543Z,9.418277
2022-09-14T10:09:10.330Z,9.418320
2022-09-14T10:10:09.323Z,9.418374
2022-09-14T10:11:09.309Z,9.418327
2022-09-14T10:12:09.313Z,9.418215
2022-09-14T10:13:09.314Z,9.418256
2022-09-14T10:14:09.321Z,9.418290
2022-09-14T10:15:09.297Z,9.418337
2022-09-14T10:16:09.321Z,9.418346
2022-09-14T10:17:09.280Z,9.418193
2022-09-14T10:18:09.274Z,9.418223
2022-09-14T10:19:09.266Z,9.418258
2022-09-14T10:20:09.261Z,9.418349
2022-09-14T10:21:09.256Z,9.418363
2022-09-14T10:22:09.333Z,9.418377
2022-09-14T10:23:09.233Z,9.418535
2022-09-14T10:24:09.243Z,9.418486
2022-09-14T10:25:09.221Z,9.418271
2022-09-14T10:26:09.217Z,9.418226
2022-09-14T10:27:09.210Z,9.418372
2022-09-14T10:28:09.223Z,9.418257
2022-09-14T10:29:09.217Z,9.418230
2022-09-14T10:30:09.191Z,9.418227
2022-09-14T10:31:09.244Z,9.418232
2022-09-14T10:32:09.191Z,9.418217
2022-09-14T10:33:09.185Z,9.418286
2022-09-14T10:34:09.175Z,9.418256
2022-09-14T10:35:09.154Z,9.418262
2022-09-14T10:36:09.153Z,9.418193
2022-09-14T10:37:09.145Z,9.418173
2022-09-14T10:38:09.141Z,9.418481
2022-09-14T10:39:09.234Z,9.418283
2022-09-14T10:40:09.186Z,9.418139
2022-09-14T10:41:09.125Z,9.418240
2022-09-14T10:42:09.117Z,9.418359
2022-09-14T10:43:09.112Z,9.418312
2022-09-14T10:44:09.118Z,9.418121
2022-09-14T10:45:09.089Z,9.418233
2022-09-14T10:46:09.136Z,9.418232
2022-09-14T10:47:09.073Z,9.418219
2022-09-14T10:48:09.072Z,9.418324
2022-09-14T10:49:09.061Z,9.418370
2022-09-14T10:50:09.073Z,9.418356
2022-09-14T10:51:09.050Z,9.418382
2022-09-14T10:52:09.039Z,9.418389
2022-09-14T10:53:09.053Z,9.418338
2022-09-14T10:54:09.048Z,9.418232
2022-09-14T10:55:09.065Z,9.418260
2022-09-14T10:56:09.053Z,9.418275
2022-09-14T10:57:09.033Z,9.418284
2022-09-14T10:58:11.759Z,9.418219
2022-09-14T10:59:10.037Z,9.418226
2022-09-14T11:00:09.017Z,9.418200
2022-09-14T11:01:09.009Z,9.418271
2022-09-14T11:02:09.068Z,9.418322
2022-09-14T11:03:09.082Z,9.418366
2022-09-14T11:04:08.988Z,9.418295
2022-09-14T11:05:08.949Z,9.418270
2022-09-14T11:06:08.961Z,9.418228
2022-09-14T11:07:08.945Z,9.418299
2022-09-14T11:08:08.945Z,9.418387
2022-09-14T11:09:08.926Z,9.418416
2022-09-14T11:10:08.920Z,9.418397
2022-09-14T11:11:11.460Z,9.418359
2022-09-14T11:12:09.909Z,9.418308
2022-09-14T11:13:08.913Z,9.418282
2022-09-14T11:14:08.906Z,9.418234
2022-09-14T11:15:08.892Z,9.418236
2022-09-14T11:16:08.914Z,9.418197
2022-09-14T11:17:08.883Z,9.418217
2022-09-14T11:18:08.874Z,9.418202
2022-09-14T11:19:08.892Z,9.418231
2022-09-14T11:20:08.856Z,9.418225
2022-09-14T11:21:08.854Z,9.418219
2022-09-14T11:22:08.845Z,9.418189
2022-09-14T11:23:08.833Z,9.418222
2022-09-14T11:24:08.844Z,9.418144
2022-09-14T11:25:08.820Z,9.418193
2022-09-14T11:26:08.821Z,9.418266
2022-09-14T11:27:08.897Z,9.418206
2022-09-14T11:28:08.808Z,9.418286
2022-09-14T11:29:08.888Z,9.418243
2022-09-14T11:30:08.802Z,9.418163
2022-09-14T11:31:08.860Z,9.418328
2022-09-14T11:32:21.071Z,9.418231
2022-09-14T11:33:10.777Z,9.418299
2022-09-14T11:34:08.776Z,9.418311
2022-09-14T11:35:08.773Z,9.418284
2022-09-14T11:36:08.759Z,9.418291
2022-09-14T11:37:08.752Z,9.418485
2022-09-14T11:38:08.736Z,9.418440
2022-09-14T11:39:08.745Z,9.418228
2022-09-14T11:40:08.880Z,9.418211
2022-09-14T11:41:08.713Z,9.418195
2022-09-14T11:42:08.712Z,9.418340
2022-09-14T11:43:08.701Z,9.418172
2022-09-14T11:44:08.693Z,9.418215